Frank Wiley Field Miles City US
ICAO: KMLS
IATA: MLS
Category: Medium
Scheduled Services: Yes

Elevation: 2630 ft
TransAlt. 18000 ft.

Airport Communications:
ASOS:135.575
GREAT FALLS RDO:122.2
CTAF/UNICOM:123

KMLS Zoom In..

Runways:

(A) RW 04 length 5680 ft width 75 ft
---- / hdg 40

(B) RW 12 length 5628 ft width 100 ft
---- / hdg 123

(C) RW 22 length 5680 ft width 75 ft
---- / hdg 220

(D) RW 30 length 5628 ft width 100 ft
---- / hdg 303

Location; KMLS
Day. 16 / Time. 17.53 Zulu
* Altimeter: 30.10
* Temperature: 29° c. 84.2°f.
* Wind from: 010° Speed 04 kn.
Dewpoint: 11° c.
Visibility: 10 Statute Miles.
Clouds: Clear (automated report).

KMLS 161753Z AUTO 01004KT 10SM CLR 29/11 A3010 RMK AO2 SLP172 T02940106 10300 20150 58003


Wind From 010°
Speed 04 kn.

 
 
jpsmedia.com for Web Design worldairports.se 2018   terms of use